This is the latest recevied weather packets stored in our database for station/object I4VBO-14. If no packets are shown the sender has not sent any weather packets the latest 10 day(s).
| Time | Temp. | Humidity | Pressure | Rain* | Wind** | Luminosity | Snow |
|---|---|---|---|---|---|---|---|
| 1776980510 | 25° C | 26% | 972 hPa | - | - | - | - |
| 1776980210 | 25° C | 26% | 972 hPa | - | - | - | - |
| 1776979910 | 25.56° C | 26% | 972 hPa | - | - | - | - |
| 1776979606 | 25° C | 26% | 971.9 hPa | - | - | - | - |
| 1776979306 | 25° C | 26% | 971.9 hPa | - | - | - | - |
| 1776979006 | 25° C | 26% | 971.9 hPa | - | - | - | - |
| 1776978402 | 25.56° C | 25% | 971.9 hPa | - | - | - | - |
| 1776978087 | 25° C | 25% | 971.8 hPa | - | - | - | - |
| 1776977783 | 25° C | 25% | 971.8 hPa | - | - | - | - |
| 1776977483 | 25° C | 25% | 971.9 hPa | - | - | - | - |
| 1776977183 | 25° C | 25% | 971.9 hPa | - | - | - | - |
| 1776976870 | 25° C | 25% | 971.8 hPa | - | - | - | - |
| 1776976570 | 25° C | 25% | 971.8 hPa | - | - | - | - |
| 1776976270 | 24.44° C | 25% | 971.8 hPa | - | - | - | - |
| 1776975970 | 25° C | 25% | 971.8 hPa | - | - | - | - |
| 1776975655 | 24.44° C | 25% | 971.8 hPa | - | - | - | - |
| 1776975355 | 24.44° C | 25% | 971.7 hPa | - | - | - | - |
| 1776975055 | 24.44° C | 25% | 971.7 hPa | - | - | - | - |
| 1776974755 | 24.44° C | 25% | 971.6 hPa | - | - | - | - |
| 1776974454 | 24.44° C | 25% | 971.7 hPa | - | - | - | - |
| 1776974154 | 23.89° C | 25% | 971.7 hPa | - | - | - | - |
| 1776973246 | 23.89° C | 25% | 971.4 hPa | - | - | - | - |
| 1776972946 | 23.33° C | 25% | 971.3 hPa | - | - | - | - |
| 1776966611 | 28.33° C | 22% | 1010.7 hPa | - | - | - | - |
| 1776965698 | 28.33° C | 22% | 1008.1 hPa | - | - | - | - |
* Rain since midnight (hover to see other rain measurements)
** Current wind speed in m/s (hover to see current wind gust speed)